Time;durP1;ratioP1;P1;durP2;ratioP2;P2;SDS_P1;SDS_P2;PMS_P1;PMS_P2;Temp;Humidity;BMP_temperature;BMP_pressure;BME280_temperature;BME280_humidity;BME280_pressure;Samples;Min_cycle;Max_cycle;Signal;HPM_P1;HPM_P2
2023/02/01 00:00:45;;;;;;;;;;;6.00;83.50;;;;;;5094221;28;19956;-28
2023/02/01 00:03:12;;;;;;;;;;;6.00;83.30;;;;;;5093692;28;20390;-26
2023/02/01 00:05:38;;;;;;;;;;;6.10;83.10;;;;;;5093777;28;19916;-27
2023/02/01 00:08:03;;;;;;;;;;;6.10;83.10;;;;;;5093717;28;19912;-32
2023/02/01 00:10:29;;;;;;;;;;;6.10;83.00;;;;;;5094032;28;20380;-27
2023/02/01 00:12:54;;;;;;;;;;;6.10;82.70;;;;;;5093823;28;19977;-31
2023/02/01 00:15:20;;;;;;;;;;;6.10;82.80;;;;;;5093633;28;19966;-39
2023/02/01 00:17:46;;;;;;;;;;;6.00;82.70;;;;;;5093657;28;20267;-34
2023/02/01 00:20:11;;;;;;;;;;;6.10;82.80;;;;;;5093581;28;20355;-30
2023/02/01 00:22:37;;;;;;;;;;;6.00;82.80;;;;;;5093691;28;20031;-30
2023/02/01 00:25:02;;;;;;;;;;;6.10;82.90;;;;;;5093689;28;19920;-29
2023/02/01 00:27:28;;;;;;;;;;;6.00;82.80;;;;;;5093796;28;19916;-32
2023/02/01 00:29:56;;;;;;;;;;;6.00;82.90;;;;;;5093233;28;20445;-29
2023/02/01 00:32:22;;;;;;;;;;;6.00;82.70;;;;;;5093354;28;19919;-27
2023/02/01 00:34:47;;;;;;;;;;;6.00;82.70;;;;;;5093191;28;19912;-29
2023/02/01 00:37:13;;;;;;;;;;;5.90;82.70;;;;;;5093214;28;19912;-32
2023/02/01 00:39:38;;;;;;;;;;;5.90;82.70;;;;;;5092718;28;19920;-28
2023/02/01 00:42:04;;;;;;;;;;;5.90;82.70;;;;;;5093145;28;19999;-28
2023/02/01 00:44:32;;;;;;;;;;;5.90;82.60;;;;;;5093408;28;20353;-29
2023/02/01 00:46:58;;;;;;;;;;;5.90;82.50;;;;;;5093194;28;20363;-33
2023/02/01 00:49:24;;;;;;;;;;;5.90;82.60;;;;;;5092986;28;20026;-28
2023/02/01 00:51:49;;;;;;;;;;;5.90;82.50;;;;;;5093253;28;20375;-29
2023/02/01 00:54:15;;;;;;;;;;;5.90;82.50;;;;;;5093276;28;19908;-29
2023/02/01 00:56:40;;;;;;;;;;;5.90;82.50;;;;;;5093148;28;19915;-31
2023/02/01 00:59:06;;;;;;;;;;;5.90;82.40;;;;;;5092745;28;19916;-29
2023/02/01 01:01:31;;;;;;;;;;;6.00;82.20;;;;;;5092733;28;20007;-28
2023/02/01 01:03:58;;;;;;;;;;;6.00;82.10;;;;;;5092722;28;19952;-35
2023/02/01 01:06:24;;;;;;;;;;;6.00;82.10;;;;;;5092772;28;19958;-27
2023/02/01 01:08:51;;;;;;;;;;;6.00;82.10;;;;;;5092520;28;19912;-28
2023/02/01 01:11:18;;;;;;;;;;;6.00;82.10;;;;;;5092819;28;19969;-34
2023/02/01 01:13:46;;;;;;;;;;;6.00;82.10;;;;;;5092685;28;20414;-28
2023/02/01 01:16:11;;;;;;;;;;;6.00;82.00;;;;;;5091003;28;20368;-28
2023/02/01 01:18:38;;;;;;;;;;;6.00;82.10;;;;;;5092927;28;19965;-28
2023/02/01 01:21:04;;;;;;;;;;;6.00;82.10;;;;;;5092272;28;19916;-31
2023/02/01 01:23:29;;;;;;;;;;;6.00;82.10;;;;;;5092303;28;19923;-32
2023/02/01 01:25:55;;;;;;;;;;;6.00;82.10;;;;;;5092964;28;19908;-28
2023/02/01 01:28:20;;;;;;;;;;;6.00;82.10;;;;;;5092604;28;20057;-32
2023/02/01 01:30:46;;;;;;;;;;;6.00;82.20;;;;;;5092601;28;19908;-31
2023/02/01 01:33:11;;;;;;;;;;;6.00;82.30;;;;;;5092288;28;20308;-30
2023/02/01 01:35:37;;;;;;;;;;;6.00;82.30;;;;;;5092355;28;19912;-29
2023/02/01 01:38:02;;;;;;;;;;;6.00;82.40;;;;;;5092447;28;19981;-28
2023/02/01 01:40:28;;;;;;;;;;;6.00;82.40;;;;;;5092856;28;19908;-30
2023/02/01 01:42:55;;;;;;;;;;;6.00;82.50;;;;;;5092287;28;20003;-40
2023/02/01 01:45:20;;;;;;;;;;;5.90;82.40;;;;;;5092342;28;19915;-32
2023/02/01 01:47:48;;;;;;;;;;;6.00;82.50;;;;;;5092500;28;19994;-29
2023/02/01 01:50:16;;;;;;;;;;;6.00;82.60;;;;;;5092264;28;19915;-27
2023/02/01 01:52:44;;;;;;;;;;;5.90;82.60;;;;;;5091482;28;20299;-31
2023/02/01 01:55:10;;;;;;;;;;;5.90;82.80;;;;;;5092047;28;19919;-32
2023/02/01 01:57:38;;;;;;;;;;;5.90;82.90;;;;;;5092401;28;19908;-28
2023/02/01 02:00:07;;;;;;;;;;;5.90;83.00;;;;;;5092192;28;19916;-33
2023/02/01 02:02:34;;;;;;;;;;;5.90;83.00;;;;;;5092296;28;19999;-30
2023/02/01 02:04:59;;;;;;;;;;;5.90;83.10;;;;;;5091574;28;19968;-30
2023/02/01 02:07:28;;;;;;;;;;;5.90;83.10;;;;;;5090170;28;20310;-31
2023/02/01 02:09:53;;;;;;;;;;;5.90;83.10;;;;;;5091624;28;19916;-31
2023/02/01 02:12:19;;;;;;;;;;;5.90;83.10;;;;;;5091464;28;19908;-28
2023/02/01 02:14:44;;;;;;;;;;;5.90;83.10;;;;;;5091521;28;19912;-28
2023/02/01 02:17:19;;;;;;;;;;;5.90;83.10;;;;;;5091445;28;19908;-33
2023/02/01 02:19:44;;;;;;;;;;;5.90;83.20;;;;;;5091502;28;19965;-30
2023/02/01 02:22:19;;;;;;;;;;;5.90;83.20;;;;;;5091137;28;20418;-30
2023/02/01 02:25:03;;;;;;;;;;;5.90;83.20;;;;;;5091424;28;19931;-27
2023/02/01 02:27:47;;;;;;;;;;;6.00;83.20;;;;;;5091287;28;20367;-33
2023/02/01 02:30:15;;;;;;;;;;;6.00;83.10;;;;;;5091364;28;19908;-30
2023/02/01 02:32:59;;;;;;;;;;;6.00;83.10;;;;;;5091389;28;19908;-31
2023/02/01 02:35:30;;;;;;;;;;;6.00;83.00;;;;;;5091706;28;20363;-27
2023/02/01 02:38:05;;;;;;;;;;;6.00;83.00;;;;;;5091448;28;19916;-29
2023/02/01 02:40:30;;;;;;;;;;;6.00;83.00;;;;;;5091496;28;20135;-30
2023/02/01 02:48:51;;;;;;;;;;;6.00;82.90;;;;;;5091501;28;20008;-27
2023/02/01 02:54:48;;;;;;;;;;;5.90;82.90;;;;;;5091499;28;19923;-28
2023/02/01 03:05:35;;;;;;;;;;;5.90;83.10;;;;;;5095188;28;19985;-33
2023/02/01 03:08:01;;;;;;;;;;;5.80;83.20;;;;;;5095033;28;19908;-37
2023/02/01 03:10:37;;;;;;;;;;;5.90;83.30;;;;;;5094821;28;19962;-28
2023/02/01 03:13:05;;;;;;;;;;;5.90;83.30;;;;;;5094737;28;20276;-26
2023/02/01 03:15:49;;;;;;;;;;;5.90;83.30;;;;;;5094954;28;20547;-28
2023/02/01 03:18:40;;;;;;;;;;;5.90;83.30;;;;;;5094727;28;20382;-28
2023/02/01 03:21:09;;;;;;;;;;;5.90;83.30;;;;;;5078022;28;19923;-38
2023/02/01 03:23:35;;;;;;;;;;;5.90;83.40;;;;;;5094689;28;19962;-29
2023/02/01 03:26:01;;;;;;;;;;;5.80;83.40;;;;;;5095093;28;19908;-31
2023/02/01 03:28:29;;;;;;;;;;;5.80;83.40;;;;;;5094720;28;19915;-27
2023/02/01 03:30:55;;;;;;;;;;;5.80;83.50;;;;;;5093313;28;19908;-28
2023/02/01 03:33:22;;;;;;;;;;;5.80;83.50;;;;;;5094919;28;20007;-31
2023/02/01 03:35:54;;;;;;;;;;;5.80;83.60;;;;;;5093242;28;20167;-28
2023/02/01 03:38:38;;;;;;;;;;;5.80;83.60;;;;;;5094421;28;19915;-31
2023/02/01 03:41:12;;;;;;;;;;;5.80;83.70;;;;;;5094362;28;19965;-30
2023/02/01 03:43:49;;;;;;;;;;;5.80;83.80;;;;;;5094239;28;19916;-28
2023/02/01 03:46:18;;;;;;;;;;;5.80;83.70;;;;;;5094431;28;19915;-27
2023/02/01 03:48:44;;;;;;;;;;;5.90;83.70;;;;;;5094031;28;19958;-27
2023/02/01 03:51:10;;;;;;;;;;;5.90;83.70;;;;;;5094218;28;19939;-29
2023/02/01 03:53:36;;;;;;;;;;;6.00;83.70;;;;;;5094280;28;19909;-28
2023/02/01 03:56:02;;;;;;;;;;;6.00;83.60;;;;;;5094455;28;19915;-38
2023/02/01 03:58:27;;;;;;;;;;;6.10;83.70;;;;;;5094462;28;19912;-30
2023/02/01 04:00:55;;;;;;;;;;;6.10;83.50;;;;;;5094371;28;19923;-27
2023/02/01 04:03:21;;;;;;;;;;;6.10;83.50;;;;;;5093749;28;19912;-29
2023/02/01 04:05:47;;;;;;;;;;;6.10;83.60;;;;;;5093875;28;19908;-28
2023/02/01 04:08:13;;;;;;;;;;;6.10;83.70;;;;;;5093753;28;19991;-27
2023/02/01 04:10:38;;;;;;;;;;;6.00;83.70;;;;;;5094040;28;19955;-30
2023/02/01 04:13:04;;;;;;;;;;;6.10;83.90;;;;;;5093951;28;19923;-29
2023/02/01 04:15:30;;;;;;;;;;;6.00;83.90;;;;;;5092932;28;20363;-31
2023/02/01 04:17:55;;;;;;;;;;;6.00;83.90;;;;;;5093786;28;20375;-33
2023/02/01 04:20:20;;;;;;;;;;;6.00;83.90;;;;;;5094046;28;19943;-29
2023/02/01 04:22:46;;;;;;;;;;;6.10;84.00;;;;;;5093397;28;19921;-30
2023/02/01 04:25:11;;;;;;;;;;;6.10;84.00;;;;;;5092426;28;20359;-31
2023/02/01 04:27:37;;;;;;;;;;;6.10;84.00;;;;;;5093818;28;20022;-30
2023/02/01 04:30:03;;;;;;;;;;;6.10;83.90;;;;;;5093899;28;20202;-27
2023/02/01 04:32:29;;;;;;;;;;;6.20;83.90;;;;;;5093562;28;19913;-29
2023/02/01 04:34:54;;;;;;;;;;;6.10;83.70;;;;;;5093619;28;19961;-28
2023/02/01 04:37:19;;;;;;;;;;;6.20;83.90;;;;;;5093449;28;19919;-31
2023/02/01 04:39:45;;;;;;;;;;;6.20;83.90;;;;;;5093709;28;20364;-29
2023/02/01 04:42:10;;;;;;;;;;;6.20;83.80;;;;;;5093368;28;20375;-29
2023/02/01 04:44:39;;;;;;;;;;;6.30;83.70;;;;;;5093387;28;19912;-30
2023/02/01 04:47:05;;;;;;;;;;;6.40;83.60;;;;;;5093276;28;19919;-28
2023/02/01 04:49:30;;;;;;;;;;;6.40;83.20;;;;;;5093235;28;19981;-29
2023/02/01 04:51:56;;;;;;;;;;;6.50;83.20;;;;;;5093475;28;19974;-27
2023/02/01 04:54:21;;;;;;;;;;;6.60;83.10;;;;;;5093002;28;19912;-31
2023/02/01 04:56:47;;;;;;;;;;;6.60;83.00;;;;;;5093166;28;20376;-31
2023/02/01 04:59:12;;;;;;;;;;;6.60;82.90;;;;;;5093343;28;19955;-31
2023/02/01 05:01:38;;;;;;;;;;;6.70;82.90;;;;;;5093241;28;19923;-29
2023/02/01 05:04:03;;;;;;;;;;;6.70;82.80;;;;;;5093005;28;20284;-32
2023/02/01 05:06:29;;;;;;;;;;;6.70;82.50;;;;;;5092978;28;19955;-35
2023/02/01 05:08:54;;;;;;;;;;;6.70;82.40;;;;;;5092932;28;20314;-33
2023/02/01 05:14:04;;;;;;;;;;;6.80;82.10;;;;;;5093062;28;20446;-38
2023/02/01 05:16:29;;;;;;;;;;;6.90;81.60;;;;;;5092983;28;19936;-32
2023/02/01 05:18:55;;;;;;;;;;;6.90;81.80;;;;;;5092737;28;19912;-29
2023/02/01 05:21:20;;;;;;;;;;;6.90;81.60;;;;;;5092570;28;19920;-31
2023/02/01 05:26:31;;;;;;;;;;;7.00;81.40;;;;;;5092357;28;19961;-30
2023/02/01 05:28:57;;;;;;;;;;;7.00;81.50;;;;;;5092567;28;19912;-35
2023/02/01 05:31:23;;;;;;;;;;;7.00;81.30;;;;;;5092506;28;19913;-31
2023/02/01 05:33:48;;;;;;;;;;;7.00;81.30;;;;;;5092739;28;19962;-33
2023/02/01 05:36:14;;;;;;;;;;;7.10;81.40;;;;;;5092756;28;19961;-27
2023/02/01 05:38:40;;;;;;;;;;;7.10;81.20;;;;;;5092636;28;19919;-32
2023/02/01 05:41:05;;;;;;;;;;;7.10;81.00;;;;;;5092576;28;19916;-34
2023/02/01 05:43:31;;;;;;;;;;;7.10;81.20;;;;;;5092249;28;19916;-32
2023/02/01 05:45:56;;;;;;;;;;;7.10;81.00;;;;;;5092292;28;20364;-33
2023/02/01 05:48:22;;;;;;;;;;;7.10;80.90;;;;;;5092184;28;19912;-35
2023/02/01 05:50:47;;;;;;;;;;;7.10;80.90;;;;;;5092164;28;20264;-32
2023/02/01 05:53:13;;;;;;;;;;;7.20;80.60;;;;;;5092111;28;19912;-30
2023/02/01 05:55:38;;;;;;;;;;;7.20;80.90;;;;;;5092429;28;20423;-28
2023/02/01 05:58:04;;;;;;;;;;;7.20;80.90;;;;;;5091924;28;19912;-28
2023/02/01 06:00:30;;;;;;;;;;;7.20;80.80;;;;;;5092095;28;19955;-31
2023/02/01 06:02:55;;;;;;;;;;;7.20;80.70;;;;;;5092297;28;19917;-29
2023/02/01 06:05:21;;;;;;;;;;;7.20;80.60;;;;;;5092220;28;19912;-29
2023/02/01 06:07:46;;;;;;;;;;;7.20;80.60;;;;;;5092025;28;19959;-28
2023/02/01 06:10:12;;;;;;;;;;;7.20;80.70;;;;;;5091987;28;19915;-34
2023/02/01 06:12:37;;;;;;;;;;;7.20;80.60;;;;;;5092234;28;19920;-30
2023/02/01 06:15:03;;;;;;;;;;;7.20;80.60;;;;;;5091929;28;19954;-30
2023/02/01 06:17:28;;;;;;;;;;;7.20;80.50;;;;;;5092098;28;19943;-31
2023/02/01 06:19:54;;;;;;;;;;;7.20;80.40;;;;;;5092058;28;19919;-41
2023/02/01 06:22:21;;;;;;;;;;;7.20;80.20;;;;;;5091792;28;19927;-30
2023/02/01 06:24:47;;;;;;;;;;;7.20;80.20;;;;;;5092222;28;20295;-29
2023/02/01 06:27:13;;;;;;;;;;;7.20;80.00;;;;;;5092171;28;20004;-35
2023/02/01 06:29:38;;;;;;;;;;;7.20;79.80;;;;;;5091200;28;20381;-31
2023/02/01 06:32:04;;;;;;;;;;;7.20;79.80;;;;;;5090496;28;19919;-33
2023/02/01 06:34:29;;;;;;;;;;;7.20;79.70;;;;;;5090732;28;20007;-36
2023/02/01 06:36:55;;;;;;;;;;;7.20;79.90;;;;;;5091756;28;20363;-32
2023/02/01 06:39:20;;;;;;;;;;;7.20;80.00;;;;;;5094388;28;19912;-31
2023/02/01 06:41:48;;;;;;;;;;;7.20;79.90;;;;;;5095624;28;19916;-29
2023/02/01 06:44:14;;;;;;;;;;;7.20;80.00;;;;;;5096017;28;20410;-28
2023/02/01 06:46:40;;;;;;;;;;;7.20;80.00;;;;;;5096027;28;19951;-31
2023/02/01 06:49:05;;;;;;;;;;;7.30;80.00;;;;;;5095768;28;19916;-32
2023/02/01 06:51:31;;;;;;;;;;;7.20;79.80;;;;;;5094278;28;19913;-30
2023/02/01 06:53:57;;;;;;;;;;;7.30;79.60;;;;;;5095803;28;19958;-28
2023/02/01 06:56:22;;;;;;;;;;;7.20;79.90;;;;;;5095542;28;19915;-29
2023/02/01 06:58:48;;;;;;;;;;;7.30;80.00;;;;;;5095415;28;19912;-35
2023/02/01 07:01:14;;;;;;;;;;;7.30;80.00;;;;;;5095256;28;19916;-32
2023/02/01 07:03:40;;;;;;;;;;;7.30;79.60;;;;;;5095256;28;20011;-30
2023/02/01 07:06:06;;;;;;;;;;;7.20;79.70;;;;;;5095366;28;20012;-31
2023/02/01 07:08:33;;;;;;;;;;;7.30;80.00;;;;;;5095154;28;19912;-31
2023/02/01 07:11:06;;;;;;;;;;;7.20;79.90;;;;;;5095417;28;19932;-41
2023/02/01 07:13:32;;;;;;;;;;;7.30;80.00;;;;;;5095712;28;19915;-29
2023/02/01 07:15:58;;;;;;;;;;;7.20;79.90;;;;;;5093833;28;20492;-30
2023/02/01 07:18:24;;;;;;;;;;;7.20;80.00;;;;;;5095017;28;19959;-29
2023/02/01 07:20:50;;;;;;;;;;;7.20;80.00;;;;;;5095071;28;19977;-34
2023/02/01 07:23:15;;;;;;;;;;;7.20;80.10;;;;;;5094778;28;19920;-27
2023/02/01 07:25:41;;;;;;;;;;;7.20;80.20;;;;;;5094859;28;20342;-29
2023/02/01 07:28:06;;;;;;;;;;;7.10;80.20;;;;;;5094761;28;19912;-29
2023/02/01 07:30:32;;;;;;;;;;;7.10;80.20;;;;;;5094753;28;19912;-28
2023/02/01 07:33:00;;;;;;;;;;;7.10;80.40;;;;;;5094995;28;19947;-31
2023/02/01 07:35:27;;;;;;;;;;;7.10;80.50;;;;;;5094714;28;19915;-29
2023/02/01 07:37:52;;;;;;;;;;;7.10;80.50;;;;;;5093367;28;19912;-28
2023/02/01 07:40:18;;;;;;;;;;;7.10;80.60;;;;;;5094657;28;19912;-31
2023/02/01 07:42:43;;;;;;;;;;;7.10;80.50;;;;;;5094974;28;19916;-29
2023/02/01 07:45:09;;;;;;;;;;;7.10;80.50;;;;;;5094626;28;19916;-31
2023/02/01 07:47:34;;;;;;;;;;;7.00;80.60;;;;;;5094876;28;19912;-31
2023/02/01 07:50:00;;;;;;;;;;;7.00;80.70;;;;;;5094486;28;20393;-33
2023/02/01 07:52:27;;;;;;;;;;;7.00;80.80;;;;;;5094438;28;19912;-32
2023/02/01 07:54:52;;;;;;;;;;;7.00;81.00;;;;;;5094790;28;20223;-28
2023/02/01 07:57:18;;;;;;;;;;;7.00;80.90;;;;;;5094449;28;19912;-38
2023/02/01 08:02:28;;;;;;;;;;;7.00;81.50;;;;;;5094426;28;19923;-32
2023/02/01 08:04:54;;;;;;;;;;;7.00;80.90;;;;;;5094813;28;20002;-30
2023/02/01 08:07:19;;;;;;;;;;;7.00;81.00;;;;;;5094489;28;19923;-31
2023/02/01 08:09:44;;;;;;;;;;;7.00;81.00;;;;;;5094721;28;19916;-28
2023/02/01 08:12:10;;;;;;;;;;;7.00;80.80;;;;;;5094173;28;19912;-31
2023/02/01 08:14:35;;;;;;;;;;;7.10;80.80;;;;;;5094204;28;20390;-33
2023/02/01 08:17:01;;;;;;;;;;;7.10;80.80;;;;;;5094157;28;19912;-33
2023/02/01 08:19:26;;;;;;;;;;;7.10;80.80;;;;;;5094142;28;19947;-31
2023/02/01 08:21:52;;;;;;;;;;;7.10;80.80;;;;;;5093728;28;19993;-33
2023/02/01 08:24:17;;;;;;;;;;;7.10;80.90;;;;;;5094329;28;19923;-34
2023/02/01 08:26:43;;;;;;;;;;;7.10;80.80;;;;;;5093982;28;20339;-33
2023/02/01 08:29:10;;;;;;;;;;;7.10;80.70;;;;;;5093822;28;19959;-28
2023/02/01 08:31:35;;;;;;;;;;;7.10;80.80;;;;;;5093914;28;20364;-34
2023/02/01 08:34:03;;;;;;;;;;;7.20;80.80;;;;;;5093689;28;19957;-34
2023/02/01 08:36:30;;;;;;;;;;;7.20;80.60;;;;;;5092742;28;19912;-32
2023/02/01 08:38:55;;;;;;;;;;;7.20;80.50;;;;;;5093526;28;20264;-29
2023/02/01 08:41:23;;;;;;;;;;;7.20;80.50;;;;;;5093534;28;19916;-29
2023/02/01 08:43:49;;;;;;;;;;;7.30;80.50;;;;;;5093604;28;19912;-33
2023/02/01 08:46:14;;;;;;;;;;;7.40;80.30;;;;;;5093468;28;20375;-32
2023/02/01 08:48:40;;;;;;;;;;;7.40;80.30;;;;;;5092371;28;19938;-33
2023/02/01 08:51:08;;;;;;;;;;;7.40;80.00;;;;;;5091991;28;19912;-29
2023/02/01 08:53:33;;;;;;;;;;;7.50;80.00;;;;;;5092896;28;19973;-36
2023/02/01 08:55:59;;;;;;;;;;;7.60;80.10;;;;;;5093382;28;20318;-31
2023/02/01 08:58:25;;;;;;;;;;;7.70;80.00;;;;;;5093328;28;20260;-34
2023/02/01 09:00:51;;;;;;;;;;;7.80;79.70;;;;;;5092747;28;19912;-29
2023/02/01 09:03:17;;;;;;;;;;;7.90;79.40;;;;;;5093082;28;20172;-38
2023/02/01 09:05:42;;;;;;;;;;;7.90;79.10;;;;;;5093165;28;19954;-33
2023/02/01 09:08:08;;;;;;;;;;;7.90;78.90;;;;;;5093120;28;19912;-33
2023/02/01 09:10:34;;;;;;;;;;;7.90;79.00;;;;;;5093082;28;19995;-33
2023/02/01 09:13:00;;;;;;;;;;;7.90;78.90;;;;;;5092960;28;20375;-31
2023/02/01 09:15:25;;;;;;;;;;;7.90;78.80;;;;;;5092916;28;19919;-27
2023/02/01 09:17:51;;;;;;;;;;;8.00;78.90;;;;;;5092974;28;19919;-30
2023/02/01 09:20:17;;;;;;;;;;;8.00;79.70;;;;;;5091550;28;20002;-28
2023/02/01 09:22:42;;;;;;;;;;;8.00;79.10;;;;;;5092573;28;19920;-30
2023/02/01 09:25:08;;;;;;;;;;;8.00;79.20;;;;;;5092905;28;19918;-28
2023/02/01 09:27:34;;;;;;;;;;;8.10;79.30;;;;;;5092842;28;20363;-33
2023/02/01 09:29:59;;;;;;;;;;;8.10;78.90;;;;;;5092766;28;19912;-29
2023/02/01 09:32:25;;;;;;;;;;;8.10;78.70;;;;;;5092737;28;20346;-30
2023/02/01 09:34:51;;;;;;;;;;;8.10;78.80;;;;;;5092640;28;20364;-30
2023/02/01 09:37:17;;;;;;;;;;;8.20;78.60;;;;;;5092687;28;19916;-28
2023/02/01 09:39:43;;;;;;;;;;;8.30;78.50;;;;;;5092607;28;20422;-30
2023/02/01 09:42:16;;;;;;;;;;;8.30;78.30;;;;;;5092417;28;20291;-33
2023/02/01 09:44:47;;;;;;;;;;;8.40;77.80;;;;;;5092660;28;20382;-38
2023/02/01 09:47:15;;;;;;;;;;;8.40;78.00;;;;;;5092504;28;20014;-31
2023/02/01 09:49:46;;;;;;;;;;;8.40;78.00;;;;;;5092551;28;19937;-30
2023/02/01 09:52:12;;;;;;;;;;;8.50;77.70;;;;;;5092439;28;20368;-30
2023/02/01 09:54:42;;;;;;;;;;;8.50;77.40;;;;;;5092989;28;20267;-27
2023/02/01 09:57:22;;;;;;;;;;;8.40;77.40;;;;;;5092094;28;19912;-27
2023/02/01 09:59:54;;;;;;;;;;;8.40;77.00;;;;;;5092195;28;19999;-29
2023/02/01 10:02:24;;;;;;;;;;;8.40;77.20;;;;;;5092080;28;19923;-34
2023/02/01 10:04:53;;;;;;;;;;;8.40;77.60;;;;;;5091973;28;20034;-29
2023/02/01 10:07:18;;;;;;;;;;;8.40;76.90;;;;;;5092208;28;19981;-30
2023/02/01 10:09:49;;;;;;;;;;;8.30;76.90;;;;;;5091840;28;19916;-31
2023/02/01 10:12:34;;;;;;;;;;;8.30;77.40;;;;;;5092214;28;20363;-28
2023/02/01 10:14:59;;;;;;;;;;;8.30;77.40;;;;;;5095629;28;20330;-29
2023/02/01 10:17:30;;;;;;;;;;;8.30;77.10;;;;;;5096126;28;19912;-28
2023/02/01 10:20:09;;;;;;;;;;;8.30;77.50;;;;;;5096347;28;19912;-27
2023/02/01 10:22:38;;;;;;;;;;;8.20;77.50;;;;;;5095828;28;19920;-29
2023/02/01 10:25:07;;;;;;;;;;;8.20;77.20;;;;;;5096383;28;19912;-28
2023/02/01 10:27:34;;;;;;;;;;;8.20;77.50;;;;;;5095962;28;20011;-34
2023/02/01 10:30:03;;;;;;;;;;;8.20;77.50;;;;;;5096188;28;20355;-29
2023/02/01 10:32:34;;;;;;;;;;;8.20;78.00;;;;;;5095840;28;20419;-29
2023/02/01 10:35:01;;;;;;;;;;;8.20;78.60;;;;;;5095955;28;19918;-31
2023/02/01 10:37:31;;;;;;;;;;;8.20;79.60;;;;;;5095655;28;19912;-29
2023/02/01 10:39:58;;;;;;;;;;;8.10;80.20;;;;;;5095601;28;20003;-28
2023/02/01 10:42:26;;;;;;;;;;;8.00;80.40;;;;;;5095481;28;19961;-28
2023/02/01 10:44:53;;;;;;;;;;;7.90;81.20;;;;;;5095301;28;20275;-27
2023/02/01 10:47:18;;;;;;;;;;;7.90;81.30;;;;;;5095745;28;19913;-27
2023/02/01 10:50:14;;;;;;;;;;;7.90;81.60;;;;;;5095355;28;19912;-30
2023/02/01 10:53:00;;;;;;;;;;;7.80;82.20;;;;;;5094408;28;20290;-32
2023/02/01 10:55:29;;;;;;;;;;;7.70;82.70;;;;;;5094781;28;19912;-29
2023/02/01 10:57:56;;;;;;;;;;;7.70;83.60;;;;;;5095540;28;20308;-28
2023/02/01 11:00:21;;;;;;;;;;;7.60;83.90;;;;;;5095214;28;19960;-27
2023/02/01 11:02:50;;;;;;;;;;;7.50;83.70;;;;;;5095290;28;20012;-31
2023/02/01 11:05:17;;;;;;;;;;;7.50;84.90;;;;;;5095535;28;20425;-30
2023/02/01 11:07:46;;;;;;;;;;;7.40;84.80;;;;;;5095220;28;20384;-48
2023/02/01 11:10:32;;;;;;;;;;;7.30;85.00;;;;;;5095006;28;20003;-34
2023/02/01 11:13:01;;;;;;;;;;;7.30;85.10;;;;;;5094422;28;19916;-34
2023/02/01 11:15:26;;;;;;;;;;;7.30;85.20;;;;;;5094894;28;20287;-37
2023/02/01 11:17:54;;;;;;;;;;;7.30;85.10;;;;;;5095051;28;19951;-31
2023/02/01 11:20:40;;;;;;;;;;;7.30;85.20;;;;;;5095050;28;19912;-28
2023/02/01 11:23:13;;;;;;;;;;;7.30;85.10;;;;;;5094212;28;20024;-36
2023/02/01 11:25:47;;;;;;;;;;;7.40;84.80;;;;;;5094246;28;19919;-31
2023/02/01 11:28:13;;;;;;;;;;;7.40;84.70;;;;;;5094571;28;19912;-30
2023/02/01 11:30:40;;;;;;;;;;;7.50;84.40;;;;;;5095147;28;19954;-28
2023/02/01 11:33:07;;;;;;;;;;;7.50;84.20;;;;;;5093435;28;19915;-28
2023/02/01 11:35:34;;;;;;;;;;;7.50;83.60;;;;;;5094905;28;20299;-33
2023/02/01 11:38:00;;;;;;;;;;;7.50;83.50;;;;;;5094760;28;19931;-28
2023/02/01 11:40:33;;;;;;;;;;;7.50;83.60;;;;;;5094591;28;19908;-29
2023/02/01 11:43:09;;;;;;;;;;;7.60;83.30;;;;;;5094772;28;20397;-29
2023/02/01 11:45:37;;;;;;;;;;;7.60;83.50;;;;;;5093244;28;19915;-28
2023/02/01 11:48:07;;;;;;;;;;;7.60;83.70;;;;;;5094809;28;20364;-31
2023/02/01 11:50:46;;;;;;;;;;;7.60;83.70;;;;;;5093070;28;19915;-30
2023/02/01 11:53:47;;;;;;;;;;;7.50;83.90;;;;;;5094302;28;19944;-40
2023/02/01 11:56:42;;;;;;;;;;;7.60;83.90;;;;;;5051593;28;19959;-30
2023/02/01 11:59:16;;;;;;;;;;;7.60;83.50;;;;;;5080742;28;20003;-28
2023/02/01 12:02:00;;;;;;;;;;;7.60;83.20;;;;;;5094310;28;19912;-28
2023/02/01 12:04:26;;;;;;;;;;;7.60;82.90;;;;;;5094331;28;19912;-30
2023/02/01 12:06:56;;;;;;;;;;;7.70;83.00;;;;;;5094301;28;19915;-27
2023/02/01 12:09:31;;;;;;;;;;;7.70;82.90;;;;;;5094682;28;19950;-32
2023/02/01 12:12:05;;;;;;;;;;;7.80;82.70;;;;;;5094233;28;19908;-30
2023/02/01 12:14:51;;;;;;;;;;;7.80;82.60;;;;;;5094608;28;19931;-29
2023/02/01 12:17:32;;;;;;;;;;;7.80;82.70;;;;;;5093662;28;20007;-27
2023/02/01 12:20:17;;;;;;;;;;;7.90;82.70;;;;;;5094032;28;19918;-31
2023/02/01 12:22:45;;;;;;;;;;;7.90;82.40;;;;;;5093887;28;20326;-32
2023/02/01 12:25:20;;;;;;;;;;;7.90;82.30;;;;;;5094268;28;19912;-28
2023/02/01 12:27:51;;;;;;;;;;;8.00;82.00;;;;;;5094052;28;19908;-32
2023/02/01 12:30:39;;;;;;;;;;;8.00;81.90;;;;;;5092565;28;20023;-38
2023/02/01 12:33:27;;;;;;;;;;;8.10;81.80;;;;;;5093706;28;20422;-30
2023/02/01 12:36:03;;;;;;;;;;;8.20;81.70;;;;;;5092985;28;19908;-30
2023/02/01 12:38:40;;;;;;;;;;;8.20;81.50;;;;;;5094060;28;19916;-33
2023/02/01 12:41:23;;;;;;;;;;;8.30;81.60;;;;;;5093814;28;20383;-29
2023/02/01 12:43:49;;;;;;;;;;;8.40;81.40;;;;;;5093448;28;19919;-34
2023/02/01 12:46:16;;;;;;;;;;;8.40;81.10;;;;;;5093503;28;19908;-31
2023/02/01 12:48:52;;;;;;;;;;;8.40;80.30;;;;;;5093635;28;19912;-30
2023/02/01 12:51:23;;;;;;;;;;;8.40;80.10;;;;;;5093446;28;19938;-29
2023/02/01 12:53:53;;;;;;;;;;;8.40;80.20;;;;;;5093340;28;20249;-27
2023/02/01 12:56:25;;;;;;;;;;;8.40;80.00;;;;;;5093403;28;20376;-29
2023/02/01 12:58:52;;;;;;;;;;;8.40;80.10;;;;;;5093624;28;20391;-27
2023/02/01 13:01:36;;;;;;;;;;;8.50;80.20;;;;;;5093571;28;19999;-29
2023/02/01 13:04:19;;;;;;;;;;;8.50;79.90;;;;;;5093324;28;19970;-37
2023/02/01 13:06:47;;;;;;;;;;;8.50;78.90;;;;;;5093177;28;19915;-28
2023/02/01 13:09:20;;;;;;;;;;;8.50;79.30;;;;;;5093128;28;19934;-28
2023/02/01 13:11:47;;;;;;;;;;;8.50;79.40;;;;;;5093100;28;19908;-33
2023/02/01 13:14:15;;;;;;;;;;;8.50;79.30;;;;;;5093383;28;19908;-31
2023/02/01 13:16:43;;;;;;;;;;;8.50;79.20;;;;;;5093288;28;19912;-28
2023/02/01 13:19:21;;;;;;;;;;;8.50;79.20;;;;;;5093515;28;19916;-29
2023/02/01 13:21:51;;;;;;;;;;;8.50;79.20;;;;;;5092807;28;20459;-30
2023/02/01 13:24:35;;;;;;;;;;;8.50;79.00;;;;;;5092970;28;19908;-27
2023/02/01 13:27:01;;;;;;;;;;;8.50;79.30;;;;;;5093101;28;19908;-27
2023/02/01 13:29:29;;;;;;;;;;;8.50;79.20;;;;;;5091096;28;20294;-29
2023/02/01 13:31:55;;;;;;;;;;;8.50;79.00;;;;;;5092715;28;19914;-33
2023/02/01 13:34:41;;;;;;;;;;;8.50;79.00;;;;;;5091327;28;20002;-33
2023/02/01 13:37:25;;;;;;;;;;;8.50;78.70;;;;;;5092599;28;19908;-28
2023/02/01 13:40:17;;;;;;;;;;;8.50;78.60;;;;;;5092590;28;19915;-31
2023/02/01 13:42:47;;;;;;;;;;;8.50;78.40;;;;;;5076308;28;19924;-30
2023/02/01 13:45:17;;;;;;;;;;;8.50;77.90;;;;;;5092611;28;19916;-29
2023/02/01 13:47:44;;;;;;;;;;;8.50;78.30;;;;;;5092462;28;19908;-30
2023/02/01 13:50:19;;;;;;;;;;;8.50;78.60;;;;;;5091212;28;19908;-30
2023/02/01 13:52:51;;;;;;;;;;;8.60;79.00;;;;;;5092363;28;19908;-34
2023/02/01 13:55:20;;;;;;;;;;;8.50;79.00;;;;;;5092689;28;20264;-30
2023/02/01 13:57:46;;;;;;;;;;;8.50;79.10;;;;;;5092338;28;19931;-27
2023/02/01 14:00:24;;;;;;;;;;;8.50;79.20;;;;;;5092251;28;19951;-27
2023/02/01 14:03:11;;;;;;;;;;;8.50;79.30;;;;;;5092201;28;19919;-33
2023/02/01 14:05:37;;;;;;;;;;;8.50;79.40;;;;;;5092429;28;20344;-31
2023/02/01 14:08:05;;;;;;;;;;;8.50;79.50;;;;;;5092291;28;19915;-31
2023/02/01 14:10:53;;;;;;;;;;;8.50;79.50;;;;;;5092400;28;20355;-27
2023/02/01 14:13:28;;;;;;;;;;;8.50;79.70;;;;;;5092267;28;20271;-32
2023/02/01 14:16:02;;;;;;;;;;;8.50;79.70;;;;;;5091996;28;19915;-29
2023/02/01 14:18:37;;;;;;;;;;;8.50;79.50;;;;;;5091941;28;19919;-32
2023/02/01 14:21:14;;;;;;;;;;;8.60;79.40;;;;;;5091938;28;19912;-28
2023/02/01 14:23:41;;;;;;;;;;;8.60;79.00;;;;;;5091781;28;20015;-28
2023/02/01 14:26:08;;;;;;;;;;;8.60;78.90;;;;;;5090698;28;19916;-29
2023/02/01 14:28:36;;;;;;;;;;;8.70;78.60;;;;;;5092192;28;20245;-28
2023/02/01 14:31:13;;;;;;;;;;;8.70;78.30;;;;;;5091885;28;19918;-28
2023/02/01 14:33:41;;;;;;;;;;;8.70;78.40;;;;;;5091962;28;19912;-34
2023/02/01 14:36:11;;;;;;;;;;;8.70;78.30;;;;;;5091933;28;19916;-29
2023/02/01 14:38:38;;;;;;;;;;;8.80;78.30;;;;;;5091882;28;20292;-27
2023/02/01 14:41:16;;;;;;;;;;;8.80;78.20;;;;;;5090453;28;19912;-30
2023/02/01 14:44:00;;;;;;;;;;;8.80;77.90;;;;;;5091881;28;19955;-29
2023/02/01 14:46:44;;;;;;;;;;;8.80;77.80;;;;;;5091885;28;20006;-29
2023/02/01 14:49:09;;;;;;;;;;;8.80;77.90;;;;;;5091800;28;20418;-29
2023/02/01 14:51:36;;;;;;;;;;;8.80;77.60;;;;;;5092139;28;19916;-30
2023/02/01 14:54:02;;;;;;;;;;;8.80;77.50;;;;;;5092028;28;19912;-29
2023/02/01 14:56:27;;;;;;;;;;;8.80;77.50;;;;;;5091471;28;20437;-39
2023/02/01 14:59:12;;;;;;;;;;;8.80;77.50;;;;;;5090448;28;20019;-31
2023/02/01 15:01:38;;;;;;;;;;;8.80;77.70;;;;;;5095419;28;19923;-37
2023/02/01 15:04:10;;;;;;;;;;;8.80;77.60;;;;;;5095800;28;19958;-32
2023/02/01 15:06:39;;;;;;;;;;;8.80;77.80;;;;;;5095512;28;19938;-28